Arctic Bay, Canada
Current Conditions -  °F | °C
As of 5:00 AM on Friday 31 Oct 2014 (Local Time) from CYIO Reporting Station
Light Snow Light Snow  
Wind Chill:   Ceiling: 3900
Heat Index: 12°   Visibility: 9mi
Dew Point: 10°   Wind: 6mph
Humidity: 92%   Direction: 170°S
Pressure: 30.14"   Gusts: NA
Location:  73.03°N, 85.17°W
Report Text: CYIO 311000Z AUTO 17005KT 9SM -SN OVC039 M11/M12 A3014 RMK SLP212
Loading
Personal Weather Stations






























Interactive Weather Map
Tropical Storm Tracking
New forecast layout! Learn more

10-Day Weather Forecast

Advertisements
Track Severe Weather on mobile